createdAt,value
2018-03-22T00:01:40.991Z,7.57
2018-03-22T00:04:11.784Z,7.87
2018-03-22T00:06:42.470Z,7.17
2018-03-22T00:09:13.790Z,6.63
2018-03-22T00:11:44.295Z,7.00
2018-03-22T00:14:15.750Z,7.00
2018-03-22T00:16:46.243Z,6.77
2018-03-22T00:19:16.730Z,6.77
2018-03-22T00:21:47.381Z,6.47
2018-03-22T00:24:17.770Z,6.13
2018-03-22T00:26:48.242Z,6.73
2018-03-22T00:29:18.923Z,6.80
2018-03-22T00:31:49.637Z,6.70
2018-03-22T00:34:21.237Z,6.87
2018-03-22T00:36:51.945Z,6.40
2018-03-22T00:39:22.251Z,6.77
2018-03-22T00:41:53.890Z,6.77
2018-03-22T00:44:24.206Z,6.97
2018-03-22T00:46:55.228Z,7.40
2018-03-22T00:49:26.063Z,7.10
2018-03-22T00:51:56.403Z,6.53
2018-03-22T00:54:26.651Z,6.90
2018-03-22T00:56:58.121Z,6.80
2018-03-22T00:59:28.549Z,6.67
2018-03-22T01:01:58.854Z,6.63
2018-03-22T01:04:30.027Z,7.30
2018-03-22T01:07:00.725Z,7.20
2018-03-22T01:09:31.792Z,6.73
2018-03-22T01:12:02.215Z,7.57
2018-03-22T01:14:32.800Z,7.33
2018-03-22T01:17:03.142Z,7.20
2018-03-22T01:19:34.468Z,8.33
2018-03-22T01:22:04.924Z,7.97
2018-03-22T01:24:36.178Z,8.27
2018-03-22T01:27:06.676Z,8.63
2018-03-22T01:29:36.910Z,9.87
2018-03-22T01:32:07.154Z,10.10
2018-03-22T01:34:37.435Z,10.97
2018-03-22T01:37:07.930Z,10.77
2018-03-22T01:39:38.570Z,11.43
2018-03-22T01:42:08.790Z,11.67
2018-03-22T01:44:39.039Z,12.40
2018-03-22T01:47:09.589Z,12.80
2018-03-22T01:49:39.830Z,13.97
2018-03-22T01:52:10.059Z,15.27
2018-03-22T01:54:41.415Z,16.33
2018-03-22T01:57:11.899Z,16.20
2018-03-22T01:59:43.146Z,17.93
2018-03-22T02:02:14.171Z,18.73
2018-03-22T02:04:45.180Z,19.00
2018-03-22T02:07:15.651Z,20.90
2018-03-22T02:09:46.142Z,21.07
2018-03-22T02:12:16.436Z,22.10
2018-03-22T02:14:46.902Z,21.40
2018-03-22T02:17:17.263Z,23.20
2018-03-22T02:19:47.491Z,24.03
2018-03-22T02:22:17.983Z,24.47
2018-03-22T02:24:48.991Z,25.30
2018-03-22T02:27:19.231Z,25.90
2018-03-22T02:29:50.578Z,26.97
2018-03-22T02:32:21.674Z,28.13
2018-03-22T02:34:52.471Z,29.00
2018-03-22T02:37:23.742Z,29.70
2018-03-22T02:39:54.005Z,31.23
2018-03-22T02:42:24.331Z,32.30
2018-03-22T02:44:54.903Z,31.63
2018-03-22T02:47:25.475Z,32.73
2018-03-22T02:49:55.945Z,34.53
2018-03-22T02:52:26.463Z,35.40
2018-03-22T02:54:57.496Z,33.60
2018-03-22T02:57:27.718Z,34.90
2018-03-22T02:59:58.282Z,36.20
2018-03-22T03:02:28.691Z,38.30
2018-03-22T03:04:59.463Z,37.40
2018-03-22T03:07:30.024Z,37.13
2018-03-22T03:10:00.681Z,41.57
2018-03-22T03:12:30.926Z,40.13
2018-03-22T03:15:01.566Z,43.03
2018-03-22T03:17:31.881Z,46.90
2018-03-22T03:20:02.222Z,47.30
2018-03-22T03:22:32.691Z,49.30
2018-03-22T03:25:02.995Z,53.37
2018-03-22T03:27:33.336Z,54.53
2018-03-22T03:30:04.211Z,58.77
2018-03-22T03:32:34.524Z,62.57
2018-03-22T03:35:05.122Z,62.77
2018-03-22T03:37:35.499Z,55.43
2018-03-22T03:40:05.930Z,57.77
2018-03-22T03:42:36.155Z,56.37
2018-03-22T03:45:06.734Z,60.33
2018-03-22T03:47:37.739Z,56.30
2018-03-22T03:50:09.070Z,57.90
2018-03-22T03:52:39.580Z,56.87
2018-03-22T03:55:10.087Z,57.00
2018-03-22T03:57:40.307Z,56.10
2018-03-22T04:00:12.362Z,53.87
2018-03-22T04:02:42.950Z,55.40
2018-03-22T04:05:13.189Z,55.70
2018-03-22T04:07:43.466Z,60.17
2018-03-22T04:10:13.719Z,60.20
2018-03-22T04:12:44.223Z,59.00
2018-03-22T04:15:14.450Z,61.37
2018-03-22T04:17:44.673Z,62.83
2018-03-22T04:20:16.946Z,58.93
2018-03-22T04:22:47.134Z,58.20
2018-03-22T04:25:17.398Z,57.37
2018-03-22T04:27:47.979Z,58.13
2018-03-22T04:30:18.494Z,61.77
2018-03-22T04:32:49.483Z,60.93
2018-03-22T04:35:19.982Z,60.87
2018-03-22T04:37:50.254Z,59.13
2018-03-22T04:40:20.910Z,60.37
2018-03-22T04:42:51.154Z,57.70
2018-03-22T04:45:21.377Z,60.17
2018-03-22T04:47:51.898Z,59.20
2018-03-22T04:50:22.371Z,58.83
2018-03-22T04:52:52.648Z,57.83
2018-03-22T04:55:23.284Z,59.20
2018-03-22T04:57:53.567Z,59.33
2018-03-22T05:00:23.799Z,61.27
2018-03-22T05:02:54.583Z,60.77
2018-03-22T05:05:24.823Z,56.97
2018-03-22T05:07:56.150Z,59.53
2018-03-22T05:10:26.350Z,61.50
2018-03-22T05:12:56.570Z,60.53
2018-03-22T05:15:26.875Z,58.70
2018-03-22T05:17:57.338Z,58.77
2018-03-22T05:20:27.907Z,61.53
2018-03-22T05:22:58.210Z,60.47
2018-03-22T05:25:28.546Z,61.60
2018-03-22T05:27:59.058Z,63.40
2018-03-22T05:30:30.458Z,61.40
2018-03-22T05:33:01.053Z,63.43
2018-03-22T05:35:31.862Z,63.13
2018-03-22T05:38:02.168Z,66.27
2018-03-22T05:40:33.754Z,62.50
2018-03-22T05:43:04.231Z,65.07
2018-03-22T05:45:34.642Z,64.20
2018-03-22T05:48:05.191Z,65.27
2018-03-22T05:50:35.425Z,68.30
2018-03-22T05:53:06.011Z,65.77
2018-03-22T05:55:36.254Z,61.37
2018-03-22T05:58:06.859Z,57.23
2018-03-22T06:00:37.146Z,57.40
2018-03-22T06:03:07.511Z,56.83
2018-03-22T06:05:38.059Z,54.63
2018-03-22T06:08:08.370Z,53.03
2018-03-22T06:10:38.847Z,51.13
2018-03-22T06:13:09.214Z,51.83
2018-03-22T06:15:39.891Z,53.77
2018-03-22T06:18:10.136Z,50.53
2018-03-22T06:20:41.172Z,49.40
2018-03-22T06:23:11.854Z,49.83
2018-03-22T06:25:42.369Z,51.50
2018-03-22T06:28:12.719Z,48.03
2018-03-22T06:30:42.953Z,49.80
2018-03-22T06:33:13.243Z,46.93
2018-03-22T06:35:43.535Z,47.40
2018-03-22T06:38:14.639Z,45.87
2018-03-22T06:40:45.412Z,47.70
2018-03-22T06:43:15.664Z,44.17
2018-03-22T06:45:45.974Z,40.30
2018-03-22T06:48:17.439Z,41.90
2018-03-22T06:50:47.812Z,41.77
2018-03-22T06:53:18.658Z,41.37
2018-03-22T06:55:49.286Z,38.23
2018-03-22T06:58:20.646Z,38.07
2018-03-22T07:00:51.350Z,38.20
2018-03-22T07:03:25.759Z,35.67
2018-03-22T07:05:56.694Z,33.57
2018-03-22T07:08:27.353Z,35.10
2018-03-22T07:13:59.195Z,30.67
2018-03-22T07:16:31.469Z,33.10
2018-03-22T07:19:02.293Z,28.97
2018-03-22T07:21:33.398Z,31.03
2018-03-22T07:24:04.822Z,29.60
2018-03-22T07:26:51.460Z,28.17
2018-03-22T07:29:22.499Z,28.07
2018-03-22T07:31:53.360Z,27.60
2018-03-22T07:34:24.732Z,28.57
2018-03-22T07:37:00.148Z,27.37
2018-03-22T07:39:31.154Z,26.00
2018-03-22T07:42:02.518Z,26.50
2018-03-22T07:44:38.448Z,27.13
2018-03-22T07:47:11.047Z,25.67
2018-03-22T07:49:41.321Z,25.37
2018-03-22T07:52:12.754Z,26.97
2018-03-22T07:54:43.866Z,26.20
2018-03-22T07:57:16.211Z,28.37
2018-03-22T07:59:46.846Z,26.70
2018-03-22T08:02:17.107Z,28.10
2018-03-22T08:04:47.591Z,27.77
2018-03-22T08:07:18.862Z,27.30
2018-03-22T08:09:49.087Z,27.57
2018-03-22T08:12:19.324Z,25.80
2018-03-22T08:14:50.388Z,28.60
2018-03-22T08:17:20.666Z,26.53
2018-03-22T08:19:50.947Z,27.57
2018-03-22T08:22:37.115Z,25.53
2018-03-22T08:25:08.977Z,25.57
2018-03-22T08:27:40.239Z,25.83
2018-03-22T08:30:12.688Z,23.37
2018-03-22T08:32:43.258Z,23.73
2018-03-22T08:35:14.342Z,22.70
2018-03-22T08:37:44.577Z,24.23
2018-03-22T08:40:14.846Z,22.77
2018-03-22T08:42:46.318Z,22.80
2018-03-22T08:45:17.366Z,22.07
2018-03-22T08:47:47.934Z,21.93
2018-03-22T08:50:18.163Z,23.27
2018-03-22T08:52:49.774Z,22.17
2018-03-22T08:55:20.474Z,21.17
2018-03-22T08:57:50.819Z,20.27
2018-03-22T09:00:21.158Z,20.37
2018-03-22T09:02:52.150Z,21.30
2018-03-22T09:05:23.171Z,20.67
2018-03-22T09:07:53.408Z,19.87
2018-03-22T09:10:24.070Z,21.93
2018-03-22T09:12:54.427Z,21.87
2018-03-22T09:15:26.086Z,20.17
2018-03-22T09:17:58.485Z,18.73
2018-03-22T09:20:30.120Z,17.17
2018-03-22T09:23:00.667Z,19.10
2018-03-22T09:25:31.209Z,19.13
2018-03-22T09:28:07.293Z,17.33
2018-03-22T09:30:39.457Z,16.50
2018-03-22T09:33:09.859Z,14.90
2018-03-22T09:35:40.141Z,15.00
2018-03-22T09:38:10.631Z,13.40
2018-03-22T09:40:40.917Z,12.80
2018-03-22T09:43:11.491Z,12.60
2018-03-22T09:45:42.022Z,13.33
2018-03-22T09:48:12.263Z,12.83
2018-03-22T09:50:43.017Z,11.63
2018-03-22T09:53:13.646Z,10.57
2018-03-22T09:55:43.930Z,10.37
2018-03-22T09:58:14.448Z,9.87
2018-03-22T10:00:44.723Z,10.13
2018-03-22T10:03:14.987Z,8.47
2018-03-22T10:05:45.518Z,8.73
2018-03-22T10:08:15.714Z,7.70
2018-03-22T10:10:46.718Z,7.60
2018-03-22T10:13:17.266Z,7.13
2018-03-22T10:15:48.550Z,7.73
2018-03-22T10:18:18.760Z,6.00
2018-03-22T10:20:49.249Z,6.47
2018-03-22T10:23:19.453Z,6.37
2018-03-22T10:25:49.691Z,6.23
2018-03-22T10:28:20.734Z,5.47
2018-03-22T10:30:51.848Z,4.53
2018-03-22T10:33:22.071Z,4.60
2018-03-22T10:35:52.648Z,5.00
2018-03-22T10:38:23.634Z,4.40
2018-03-22T10:40:53.923Z,4.50
2018-03-22T10:43:25.289Z,4.50
2018-03-22T10:45:55.590Z,4.90
2018-03-22T10:48:25.852Z,4.60
2018-03-22T10:50:57.158Z,4.47
2018-03-22T10:53:28.374Z,4.00
2018-03-22T10:55:59.708Z,4.20
2018-03-22T10:58:29.954Z,3.53
2018-03-22T11:01:05.121Z,3.63
2018-03-22T11:03:40.544Z,4.20
2018-03-22T11:06:11.596Z,4.53
2018-03-22T11:08:42.082Z,4.33
2018-03-22T11:11:12.348Z,3.90
2018-03-22T11:13:43.592Z,4.23
2018-03-22T11:16:14.173Z,3.87
2018-03-22T11:18:44.984Z,3.70
2018-03-22T11:21:15.284Z,3.63
2018-03-22T11:23:45.735Z,3.87
2018-03-22T11:26:15.965Z,3.47
2018-03-22T11:28:46.194Z,3.37
2018-03-22T11:31:16.818Z,3.00
2018-03-22T11:33:47.014Z,3.10
2018-03-22T11:36:17.326Z,3.00
2018-03-22T11:38:47.823Z,2.77
2018-03-22T11:41:18.856Z,3.07
2018-03-22T11:43:49.338Z,3.13
2018-03-22T11:46:19.842Z,3.17
2018-03-22T11:48:50.843Z,2.30
2018-03-22T11:51:21.138Z,3.23
2018-03-22T11:53:51.779Z,2.77
2018-03-22T11:56:21.998Z,3.10
2018-03-22T11:58:52.246Z,3.30
2018-03-22T12:01:22.906Z,3.40
2018-03-22T12:03:53.238Z,3.70
2018-03-22T12:06:23.566Z,3.27
2018-03-22T12:08:54.087Z,3.10
2018-03-22T12:11:24.337Z,3.10
2018-03-22T12:13:54.826Z,3.10
2018-03-22T12:16:25.335Z,3.20
2018-03-22T12:18:56.439Z,3.27
2018-03-22T12:21:27.649Z,2.60
2018-03-22T12:23:58.348Z,3.23
2018-03-22T12:26:29.614Z,3.13
2018-03-22T12:28:59.914Z,3.33
2018-03-22T12:31:30.891Z,2.90
2018-03-22T12:34:01.378Z,2.83
2018-03-22T12:36:31.578Z,2.87
2018-03-22T12:39:03.430Z,3.83
2018-03-22T12:41:33.987Z,3.97
2018-03-22T12:44:04.595Z,4.30
2018-03-22T12:46:34.938Z,4.20
2018-03-22T12:49:05.548Z,4.23
2018-03-22T12:51:35.895Z,3.83
2018-03-22T12:54:06.162Z,4.10
2018-03-22T12:56:36.934Z,3.90
2018-03-22T12:59:07.163Z,4.20
2018-03-22T13:01:37.388Z,3.80
2018-03-22T13:04:08.006Z,4.20
2018-03-22T13:06:38.298Z,4.00
2018-03-22T13:09:08.535Z,4.53
2018-03-22T13:11:39.046Z,4.13
2018-03-22T13:14:09.285Z,3.73
2018-03-22T13:16:39.542Z,3.93
2018-03-22T13:19:10.055Z,4.37
2018-03-22T13:21:40.258Z,8.10
2018-03-22T13:24:11.365Z,15.60
2018-03-22T13:26:43.050Z,12.37
2018-03-22T13:29:13.410Z,7.60
2018-03-22T13:31:43.954Z,6.23
2018-03-22T13:34:14.246Z,7.13
2018-03-22T13:36:44.751Z,6.20
2018-03-22T13:39:15.024Z,5.17
2018-03-22T13:41:46.010Z,5.17
2018-03-22T13:44:17.569Z,4.80
2018-03-22T13:46:47.814Z,4.20
2018-03-22T13:49:19.001Z,4.47
2018-03-22T13:51:49.474Z,4.87
2018-03-22T13:54:19.738Z,4.60
2018-03-22T13:56:50.278Z,4.13
2018-03-22T13:59:20.796Z,3.77
2018-03-22T14:01:51.115Z,4.23
2018-03-22T14:04:21.587Z,3.90
2018-03-22T14:06:52.197Z,4.17
2018-03-22T14:09:22.452Z,4.50
2018-03-22T14:11:52.682Z,4.07
2018-03-22T14:14:24.142Z,3.90
2018-03-22T14:16:54.658Z,3.70
2018-03-22T14:19:24.834Z,3.53
2018-03-22T14:21:55.464Z,3.63
2018-03-22T14:24:25.822Z,4.30
2018-03-22T14:26:56.014Z,4.10
2018-03-22T14:29:26.509Z,4.13
2018-03-22T14:31:57.580Z,4.17
2018-03-22T14:34:27.799Z,4.00
2018-03-22T14:36:58.523Z,4.27
2018-03-22T14:39:28.839Z,4.57
2018-03-22T14:41:59.174Z,4.40
2018-03-22T14:44:29.716Z,3.70
2018-03-22T14:47:00.250Z,4.13
2018-03-22T14:49:31.156Z,3.60
2018-03-22T14:52:01.679Z,3.40
2018-03-22T14:54:32.014Z,3.60
2018-03-22T14:57:02.235Z,3.80
2018-03-22T14:59:32.826Z,3.70
2018-03-22T15:02:03.898Z,4.60
2018-03-22T15:04:35.208Z,4.50
2018-03-22T15:07:05.689Z,4.77
2018-03-22T15:09:36.010Z,5.00
2018-03-22T15:12:06.583Z,5.47
2018-03-22T15:14:37.402Z,5.87
2018-03-22T15:17:07.897Z,6.47
2018-03-22T15:19:38.113Z,6.90
2018-03-22T15:22:08.775Z,8.00
2018-03-22T15:24:39.083Z,8.40
2018-03-22T15:27:09.286Z,7.90
2018-03-22T15:29:39.774Z,7.93
2018-03-22T15:32:09.971Z,8.23
2018-03-22T15:34:40.419Z,7.37
2018-03-22T15:37:10.900Z,7.53
2018-03-22T15:39:41.192Z,7.73
2018-03-22T15:42:11.456Z,8.07
2018-03-22T15:44:42.105Z,7.20
2018-03-22T15:47:12.611Z,7.27
2018-03-22T15:49:42.834Z,7.30
2018-03-22T15:52:14.012Z,7.27
2018-03-22T15:54:45.186Z,7.17
2018-03-22T15:57:15.530Z,7.83
2018-03-22T15:59:46.318Z,8.30
2018-03-22T16:02:17.578Z,8.40
2018-03-22T16:04:49.090Z,8.63
2018-03-22T16:07:19.386Z,7.73
2018-03-22T16:09:49.661Z,8.37
2018-03-22T16:12:20.894Z,8.57
2018-03-22T16:14:51.887Z,8.60
2018-03-22T16:17:22.393Z,9.40
2018-03-22T16:19:52.919Z,9.50
2018-03-22T16:22:23.790Z,9.67
2018-03-22T16:24:54.136Z,9.57
2018-03-22T16:27:25.438Z,10.37
2018-03-22T16:29:55.794Z,11.33
2018-03-22T16:32:28.074Z,11.87
2018-03-22T16:34:58.594Z,11.80
2018-03-22T16:37:31.601Z,11.37
2018-03-22T16:40:02.985Z,11.87
2018-03-22T16:42:33.359Z,12.10
2018-03-22T16:45:06.695Z,11.50
2018-03-22T16:47:37.841Z,10.87
2018-03-22T16:50:09.841Z,12.40
2018-03-22T16:52:40.655Z,11.57
2018-03-22T16:55:27.272Z,12.00
2018-03-22T16:59:13.022Z,10.80
2018-03-22T17:01:45.318Z,11.70
2018-03-22T17:04:17.408Z,11.80
2018-03-22T17:06:48.659Z,11.93
2018-03-22T17:09:26.751Z,12.00
2018-03-22T17:11:57.606Z,12.23
2018-03-22T17:14:29.410Z,12.13
2018-03-22T17:16:59.635Z,12.27
2018-03-22T17:19:32.119Z,11.37
2018-03-22T17:22:04.115Z,12.33
2018-03-22T17:24:34.438Z,11.73
2018-03-22T17:27:04.878Z,11.63
2018-03-22T17:29:36.310Z,12.27
2018-03-22T17:32:06.542Z,11.93
2018-03-22T17:34:36.990Z,12.67
2018-03-22T17:37:08.027Z,11.13
2018-03-22T17:39:39.366Z,11.90
2018-03-22T17:42:09.091Z,13.63
2018-03-22T17:44:40.062Z,12.80
2018-03-22T17:47:10.637Z,12.37
2018-03-22T17:49:44.705Z,13.37
2018-03-22T17:52:16.853Z,13.07
2018-03-22T17:54:47.540Z,12.97
2018-03-22T17:57:20.258Z,12.47
2018-03-22T17:59:52.025Z,12.13
2018-03-22T18:02:22.389Z,13.10
2018-03-22T18:04:53.452Z,11.47
2018-03-22T18:07:24.010Z,11.67
2018-03-22T18:09:54.359Z,11.73
2018-03-22T18:12:25.115Z,11.70
2018-03-22T18:14:56.293Z,11.40
2018-03-22T18:17:26.782Z,12.37
2018-03-22T18:20:22.420Z,11.60
2018-03-22T18:22:54.011Z,11.83
2018-03-22T18:25:24.382Z,11.87
2018-03-22T18:27:55.305Z,10.90
2018-03-22T18:30:29.875Z,11.60
2018-03-22T18:33:22.226Z,9.73
2018-03-22T18:35:53.052Z,9.83
2018-03-22T18:38:48.202Z,9.30
2018-03-22T18:41:18.819Z,8.73
2018-03-22T18:43:50.006Z,9.90
2018-03-22T18:46:20.859Z,10.60
2018-03-22T18:48:53.162Z,10.50
2018-03-22T18:51:23.517Z,11.50
2018-03-22T18:53:53.788Z,10.47
2018-03-22T18:56:24.535Z,9.50
2018-03-22T18:58:54.961Z,10.33
2018-03-22T19:01:25.674Z,10.13
2018-03-22T19:03:57.569Z,9.57
2018-03-22T19:06:28.098Z,8.83
2018-03-22T19:09:04.779Z,8.87
2018-03-22T19:11:39.237Z,8.50
2018-03-22T19:14:14.889Z,8.53
2018-03-22T19:16:46.215Z,8.17
2018-03-22T19:19:17.676Z,8.77
2018-03-22T19:21:49.696Z,8.63
2018-03-22T19:24:20.202Z,8.77
2018-03-22T19:26:50.519Z,9.33
2018-03-22T19:29:25.052Z,9.53
2018-03-22T19:31:55.307Z,9.23
2018-03-22T19:34:25.822Z,9.63
2018-03-22T19:36:57.966Z,9.30
2018-03-22T19:39:29.828Z,10.00
2018-03-22T19:42:00.597Z,9.47
2018-03-22T19:44:31.744Z,9.70
2018-03-22T19:47:02.270Z,9.20
2018-03-22T19:49:32.998Z,10.10
2018-03-22T19:52:03.516Z,10.47
2018-03-22T19:54:34.386Z,10.40
2018-03-22T19:57:04.917Z,10.30
2018-03-22T19:59:36.535Z,9.60
2018-03-22T20:02:06.770Z,10.03
2018-03-22T20:04:37.474Z,10.07
2018-03-22T20:07:07.671Z,9.83
2018-03-22T20:09:37.971Z,8.90
2018-03-22T20:12:08.803Z,9.57
2018-03-22T20:14:41.121Z,8.30
2018-03-22T20:17:11.395Z,7.83
2018-03-22T20:19:43.389Z,8.10
2018-03-22T20:22:13.758Z,7.60
2018-03-22T20:24:44.660Z,7.33
2018-03-22T20:27:14.938Z,7.23
2018-03-22T20:29:45.198Z,6.67
2018-03-22T20:32:15.790Z,7.07
2018-03-22T20:34:46.824Z,7.40
2018-03-22T20:37:17.863Z,7.20
2018-03-22T20:39:49.827Z,6.67
2018-03-22T20:42:20.142Z,7.47
2018-03-22T20:44:51.403Z,7.33
2018-03-22T20:47:22.776Z,7.30
2018-03-22T20:49:53.251Z,7.33
2018-03-22T20:52:23.629Z,6.70
2018-03-22T20:54:54.108Z,7.27
2018-03-22T20:57:24.342Z,6.80
2018-03-22T20:59:55.371Z,6.43
2018-03-22T21:02:26.041Z,7.30
2018-03-22T21:04:56.263Z,7.47
2018-03-22T21:07:26.508Z,7.37
2018-03-22T21:09:57.026Z,6.63
2018-03-22T21:12:27.343Z,7.03
2018-03-22T21:14:58.011Z,7.50
2018-03-22T21:17:28.606Z,6.53
2018-03-22T21:19:58.922Z,6.93
2018-03-22T21:22:29.546Z,6.43
2018-03-22T21:24:59.789Z,6.40
2018-03-22T21:27:30.269Z,6.57
2018-03-22T21:30:01.585Z,6.73
2018-03-22T21:32:31.834Z,6.80
2018-03-22T21:35:03.238Z,6.50
2018-03-22T21:37:33.987Z,6.37
2018-03-22T21:40:04.958Z,6.20
2018-03-22T21:42:35.301Z,6.03
2018-03-22T21:45:05.925Z,7.50
2018-03-22T21:47:36.128Z,7.17
2018-03-22T21:50:07.174Z,6.93
2018-03-22T21:52:46.636Z,7.50
2018-03-22T21:55:16.902Z,7.90
2018-03-22T21:57:47.586Z,7.10
2018-03-22T22:00:17.849Z,7.27
2018-03-22T22:02:48.122Z,8.27
2018-03-22T22:05:19.668Z,7.97
2018-03-22T22:07:50.757Z,7.73
2018-03-22T22:10:21.015Z,7.37
2018-03-22T22:12:51.608Z,6.93
2018-03-22T22:15:21.948Z,7.50
2018-03-22T22:17:52.230Z,6.97
2018-03-22T22:20:22.762Z,6.83
2018-03-22T22:22:52.954Z,7.27
2018-03-22T22:25:24.029Z,7.00
2018-03-22T22:27:55.427Z,7.57
2018-03-22T22:30:26.519Z,7.30
2018-03-22T22:32:57.912Z,7.10
2018-03-22T22:35:28.724Z,7.27
2018-03-22T22:37:59.072Z,6.80
2018-03-22T22:40:29.770Z,6.53
2018-03-22T22:43:00.010Z,6.63
2018-03-22T22:45:31.010Z,7.17
2018-03-22T22:48:01.540Z,7.53
2018-03-22T22:50:31.831Z,6.80
2018-03-22T22:53:02.100Z,6.77
2018-03-22T22:55:32.687Z,6.33
2018-03-22T22:58:02.950Z,5.93
2018-03-22T23:00:33.412Z,5.53
2018-03-22T23:03:03.951Z,5.83
2018-03-22T23:05:34.280Z,5.80
2018-03-22T23:08:05.252Z,6.50
2018-03-22T23:10:35.526Z,6.57
2018-03-22T23:13:06.073Z,8.07
2018-03-22T23:15:37.631Z,9.37
2018-03-22T23:18:08.628Z,9.80
2018-03-22T23:20:39.665Z,8.37
2018-03-22T23:23:10.143Z,9.37
2018-03-22T23:25:40.856Z,8.50
2018-03-22T23:28:13.076Z,8.27
2018-03-22T23:30:44.189Z,7.03
2018-03-22T23:33:15.415Z,6.10
2018-03-22T23:35:46.624Z,5.43
2018-03-22T23:38:17.736Z,4.93
2018-03-22T23:40:48.563Z,5.00
2018-03-22T23:43:19.430Z,4.37
2018-03-22T23:45:49.754Z,4.37
2018-03-22T23:48:20.261Z,3.90
2018-03-22T23:50:50.643Z,4.07
2018-03-22T23:53:22.646Z,3.40
2018-03-22T23:55:54.083Z,2.73
2018-03-22T23:58:25.317Z,3.00
